createdAt,value
2023-05-21T00:02:06.178Z,1.60
2023-05-21T00:04:34.267Z,1.20
2023-05-21T00:07:01.678Z,1.20
2023-05-21T00:09:28.715Z,1.10
2023-05-21T00:11:55.853Z,1.60
2023-05-21T00:14:22.954Z,1.20
2023-05-21T00:16:50.210Z,1.30
2023-05-21T00:19:17.499Z,1.60
2023-05-21T00:21:46.266Z,1.60
2023-05-21T00:24:13.586Z,1.50
2023-05-21T00:26:40.503Z,1.30
2023-05-21T00:29:07.554Z,1.40
2023-05-21T00:31:34.995Z,1.10
2023-05-21T00:34:02.030Z,1.10
2023-05-21T00:36:29.111Z,1.30
2023-05-21T00:38:56.149Z,1.20
2023-05-21T00:41:23.274Z,1.40
2023-05-21T00:43:50.399Z,1.30
2023-05-21T00:46:19.857Z,1.40
2023-05-21T00:48:48.405Z,1.50
2023-05-21T00:51:17.053Z,1.30
2023-05-21T00:53:45.126Z,1.10
2023-05-21T00:56:12.578Z,1.20
2023-05-21T00:58:41.157Z,1.20
2023-05-21T01:01:14.234Z,1.30
2023-05-21T01:03:41.528Z,1.40
2023-05-21T01:06:10.085Z,1.00
2023-05-21T01:08:38.643Z,1.30
2023-05-21T01:11:07.822Z,1.40
2023-05-21T01:13:37.930Z,1.20
2023-05-21T01:16:06.877Z,1.40
2023-05-21T01:18:38.265Z,1.20
2023-05-21T01:21:07.656Z,1.10
2023-05-21T01:23:35.099Z,1.30
2023-05-21T01:26:02.059Z,1.20
2023-05-21T01:28:30.062Z,1.80
2023-05-21T01:31:03.039Z,1.30
2023-05-21T01:33:36.617Z,1.00
2023-05-21T01:36:16.143Z,0.90
2023-05-21T01:38:54.136Z,1.20
2023-05-21T01:41:22.309Z,1.20
2023-05-21T01:43:49.719Z,1.20
2023-05-21T01:46:21.804Z,1.40
2023-05-21T01:48:50.668Z,1.30
2023-05-21T01:51:18.017Z,1.10
2023-05-21T01:53:45.119Z,1.30
2023-05-21T01:56:12.853Z,1.20
2023-05-21T01:58:39.880Z,1.30
2023-05-21T02:01:06.974Z,1.40
2023-05-21T02:03:34.116Z,1.00
2023-05-21T02:06:01.420Z,1.40
2023-05-21T02:08:28.465Z,1.20
2023-05-21T02:10:55.758Z,1.10
2023-05-21T02:13:26.024Z,1.40
2023-05-21T02:15:55.094Z,1.30
2023-05-21T02:18:23.323Z,1.60
2023-05-21T02:20:50.987Z,1.20
2023-05-21T02:23:18.047Z,1.50
2023-05-21T02:25:45.079Z,1.20
2023-05-21T02:28:12.962Z,1.50
2023-05-21T02:30:40.008Z,1.30
2023-05-21T02:33:09.416Z,1.10
2023-05-21T02:35:36.959Z,1.10
2023-05-21T02:38:04.174Z,1.10
2023-05-21T02:40:31.852Z,1.20
2023-05-21T02:42:58.782Z,1.10
2023-05-21T02:45:25.905Z,1.30
2023-05-21T02:47:53.252Z,1.30
2023-05-21T02:50:22.969Z,1.40
2023-05-21T02:52:55.129Z,1.50
2023-05-21T02:55:22.955Z,1.30
2023-05-21T02:57:50.785Z,1.30
2023-05-21T03:00:18.186Z,1.40
2023-05-21T03:02:45.496Z,1.30
2023-05-21T03:05:12.757Z,1.20
2023-05-21T03:07:40.079Z,1.20
2023-05-21T03:10:07.793Z,1.30
2023-05-21T03:12:34.749Z,1.20
2023-05-21T03:15:01.750Z,1.50
2023-05-21T03:17:29.246Z,1.60
2023-05-21T03:19:56.388Z,1.40
2023-05-21T03:22:23.351Z,1.60
2023-05-21T03:24:50.471Z,1.20
2023-05-21T03:27:18.736Z,1.30
2023-05-21T03:29:46.224Z,1.40
2023-05-21T03:32:14.114Z,1.40
2023-05-21T03:34:42.184Z,1.60
2023-05-21T03:37:09.243Z,1.10
2023-05-21T03:39:36.948Z,1.30
2023-05-21T03:42:04.412Z,1.80
2023-05-21T03:44:44.784Z,1.40
2023-05-21T03:47:46.940Z,1.30
2023-05-21T03:50:13.911Z,1.40
2023-05-21T03:52:41.002Z,1.50
2023-05-21T03:55:08.531Z,1.50
2023-05-21T03:57:36.135Z,1.50
2023-05-21T04:00:04.491Z,1.50
2023-05-21T04:02:32.488Z,1.30
2023-05-21T04:04:59.777Z,1.30
2023-05-21T04:07:27.407Z,1.40
2023-05-21T04:09:54.357Z,1.30
2023-05-21T04:12:21.454Z,1.20
2023-05-21T04:14:48.527Z,1.50
2023-05-21T04:17:15.777Z,1.40
2023-05-21T04:19:44.422Z,1.60
2023-05-21T04:22:12.379Z,1.40
2023-05-21T04:24:39.637Z,1.30
2023-05-21T04:27:29.062Z,1.30
2023-05-21T04:29:58.238Z,1.30
2023-05-21T04:32:25.253Z,1.20
2023-05-21T04:34:52.257Z,1.00
2023-05-21T04:37:19.312Z,1.20
2023-05-21T04:39:47.143Z,1.70
2023-05-21T04:42:14.448Z,1.30
2023-05-21T04:44:44.672Z,1.40
2023-05-21T04:47:15.063Z,1.20
2023-05-21T04:49:42.367Z,1.20
2023-05-21T04:52:09.379Z,1.10
2023-05-21T04:54:39.151Z,1.30
2023-05-21T04:57:06.858Z,1.30
2023-05-21T04:59:35.019Z,1.60
2023-05-21T05:02:02.199Z,1.20
2023-05-21T05:04:29.271Z,1.40
2023-05-21T05:06:56.346Z,1.20
2023-05-21T05:09:25.310Z,1.20
2023-05-21T05:11:52.921Z,1.60
2023-05-21T05:14:20.008Z,1.50
2023-05-21T05:16:48.461Z,1.40
2023-05-21T05:19:16.105Z,1.30
2023-05-21T05:21:44.600Z,1.30
2023-05-21T05:24:12.055Z,1.60
2023-05-21T05:26:39.033Z,1.30
2023-05-21T05:29:06.085Z,1.40
2023-05-21T05:31:33.221Z,1.20
2023-05-21T05:34:00.334Z,1.20
2023-05-21T05:36:28.612Z,1.30
2023-05-21T05:38:55.672Z,1.40
2023-05-21T05:41:23.020Z,1.50
2023-05-21T05:43:50.140Z,1.20
2023-05-21T05:46:17.486Z,1.30
2023-05-21T05:48:45.378Z,1.50
2023-05-21T05:51:13.267Z,1.50
2023-05-21T05:53:40.329Z,1.60
2023-05-21T05:56:07.837Z,1.40
2023-05-21T05:58:34.939Z,1.40
2023-05-21T06:01:11.035Z,1.80
2023-05-21T06:03:38.219Z,1.60
2023-05-21T06:06:14.612Z,1.60
2023-05-21T06:08:41.754Z,1.50
2023-05-21T06:11:09.779Z,1.60
2023-05-21T06:13:37.089Z,1.30
2023-05-21T06:16:05.223Z,1.50
2023-05-21T06:18:32.778Z,1.70
2023-05-21T06:21:00.195Z,1.40
2023-05-21T06:23:27.629Z,1.40
2023-05-21T06:25:54.981Z,1.50
2023-05-21T06:28:22.033Z,1.40
2023-05-21T06:30:49.293Z,1.30
2023-05-21T06:33:16.888Z,1.30
2023-05-21T06:35:44.287Z,1.20
2023-05-21T06:38:11.567Z,1.50
2023-05-21T06:40:38.570Z,1.60
2023-05-21T06:43:06.503Z,1.40
2023-05-21T06:45:39.770Z,1.70
2023-05-21T06:48:30.171Z,1.30
2023-05-21T06:50:58.004Z,1.60
2023-05-21T06:53:25.102Z,1.30
2023-05-21T06:55:54.034Z,1.40
2023-05-21T06:58:39.817Z,1.30
2023-05-21T07:01:07.024Z,2.00
2023-05-21T07:03:34.252Z,1.30
2023-05-21T07:06:01.911Z,1.20
2023-05-21T07:08:28.889Z,1.50
2023-05-21T07:10:56.650Z,1.50
2023-05-21T07:13:23.876Z,1.60
2023-05-21T07:15:51.022Z,1.30
2023-05-21T07:18:18.184Z,1.90
2023-05-21T07:20:45.511Z,1.50
2023-05-21T07:23:14.592Z,1.70
2023-05-21T07:25:41.581Z,1.50
2023-05-21T07:28:08.701Z,1.20
2023-05-21T07:30:36.263Z,1.50
2023-05-21T07:33:06.753Z,1.40
2023-05-21T07:35:34.361Z,1.50
2023-05-21T07:38:01.629Z,1.80
2023-05-21T07:40:29.165Z,1.80
2023-05-21T07:42:56.836Z,1.60
2023-05-21T07:45:26.098Z,1.90
2023-05-21T07:47:54.200Z,1.60
2023-05-21T07:50:21.361Z,1.60
2023-05-21T07:52:48.501Z,1.20
2023-05-21T07:55:15.990Z,1.30
2023-05-21T07:57:43.733Z,1.60
2023-05-21T08:00:14.580Z,1.80
2023-05-21T08:02:49.205Z,1.60
2023-05-21T08:05:19.325Z,1.60
2023-05-21T08:07:47.609Z,1.70
2023-05-21T08:10:16.195Z,1.40
2023-05-21T08:12:45.425Z,1.20
2023-05-21T08:15:12.846Z,1.00
2023-05-21T08:17:42.878Z,1.30
2023-05-21T08:20:13.770Z,1.30
2023-05-21T08:22:41.617Z,1.40
2023-05-21T08:25:09.771Z,1.30
2023-05-21T08:27:37.066Z,1.40
2023-05-21T08:30:05.616Z,1.60
2023-05-21T08:32:32.766Z,1.60
2023-05-21T08:35:01.224Z,1.30
2023-05-21T08:37:48.492Z,1.90
2023-05-21T08:40:42.011Z,1.10
2023-05-21T08:43:14.127Z,1.30
2023-05-21T08:45:48.410Z,1.30
2023-05-21T08:48:17.654Z,1.40
2023-05-21T08:50:46.437Z,1.20
2023-05-21T08:53:27.433Z,1.20
2023-05-21T08:55:57.639Z,1.40
2023-05-21T08:58:34.085Z,1.40
2023-05-21T09:01:01.963Z,1.40
2023-05-21T09:03:32.121Z,1.50
2023-05-21T09:06:00.525Z,1.50
2023-05-21T09:08:32.895Z,1.70
2023-05-21T09:11:07.222Z,1.30
2023-05-21T09:13:40.728Z,1.60
2023-05-21T09:16:13.109Z,1.60
2023-05-21T09:18:40.144Z,1.50
2023-05-21T09:21:28.459Z,1.70
2023-05-21T09:24:00.677Z,1.30
2023-05-21T09:26:28.330Z,1.40
2023-05-21T09:29:00.548Z,1.20
2023-05-21T09:31:29.790Z,1.20
2023-05-21T09:33:57.243Z,1.30
2023-05-21T09:36:25.917Z,1.40
2023-05-21T09:38:53.912Z,1.60
2023-05-21T09:41:31.314Z,1.40
2023-05-21T09:44:02.997Z,1.60
2023-05-21T09:46:41.697Z,1.40
2023-05-21T09:49:25.230Z,1.30
2023-05-21T09:51:59.336Z,1.50
2023-05-21T09:54:32.833Z,1.00
2023-05-21T09:57:03.844Z,1.10
2023-05-21T09:59:39.840Z,1.10
2023-05-21T10:02:22.153Z,1.30
2023-05-21T10:04:51.173Z,1.20
2023-05-21T10:07:26.069Z,1.60
2023-05-21T10:09:58.170Z,1.40
2023-05-21T10:12:26.310Z,1.70
2023-05-21T10:15:01.606Z,1.40
2023-05-21T10:17:30.006Z,1.30
2023-05-21T10:19:58.524Z,1.00
2023-05-21T10:22:27.650Z,1.20
2023-05-21T10:24:55.086Z,1.50
2023-05-21T10:27:23.561Z,1.20
2023-05-21T10:29:53.999Z,1.60
2023-05-21T10:32:24.552Z,1.30
2023-05-21T10:34:54.276Z,1.50
2023-05-21T10:37:24.823Z,1.80
2023-05-21T10:39:52.014Z,1.40
2023-05-21T10:42:24.439Z,1.80
2023-05-21T10:45:06.648Z,1.50
2023-05-21T10:47:58.561Z,1.30
2023-05-21T10:50:31.877Z,1.60
2023-05-21T10:53:10.556Z,1.30
2023-05-21T10:55:58.833Z,1.50
2023-05-21T10:58:35.678Z,1.80
2023-05-21T11:01:04.413Z,1.80
2023-05-21T11:03:35.779Z,2.00
2023-05-21T11:06:08.902Z,1.90
2023-05-21T11:08:37.687Z,1.70
2023-05-21T11:11:05.422Z,1.80
2023-05-21T11:13:49.542Z,1.70
2023-05-21T11:16:18.338Z,2.00
2023-05-21T11:18:45.293Z,1.60
2023-05-21T11:21:16.193Z,2.00
2023-05-21T11:23:52.759Z,2.10
2023-05-21T11:26:48.471Z,1.90
2023-05-21T11:29:15.678Z,2.00
2023-05-21T11:31:47.006Z,2.00
2023-05-21T11:34:29.753Z,2.00
2023-05-21T11:37:25.461Z,2.20
2023-05-21T11:39:52.910Z,2.40
2023-05-21T11:42:44.208Z,2.40
2023-05-21T11:45:11.490Z,2.20
2023-05-21T11:47:40.741Z,2.60
2023-05-21T11:50:14.680Z,2.80
2023-05-21T11:52:42.737Z,3.00
2023-05-21T11:55:11.519Z,2.90
2023-05-21T11:57:42.306Z,2.50
2023-05-21T12:00:17.001Z,2.50
2023-05-21T12:03:02.475Z,3.20
2023-05-21T12:05:29.496Z,2.90
2023-05-21T12:07:58.641Z,3.10
2023-05-21T12:10:25.600Z,3.40
2023-05-21T12:12:56.992Z,2.90
2023-05-21T12:15:26.394Z,3.50
2023-05-21T12:17:54.623Z,3.20
2023-05-21T12:20:22.239Z,3.60
2023-05-21T12:22:50.465Z,2.80
2023-05-21T12:25:21.570Z,3.70
2023-05-21T12:27:52.871Z,3.30
2023-05-21T12:30:21.347Z,3.20
2023-05-21T12:32:49.379Z,3.40
2023-05-21T12:35:24.053Z,3.10
2023-05-21T12:37:52.103Z,3.20
2023-05-21T12:40:20.055Z,3.50
2023-05-21T12:42:47.261Z,3.20
2023-05-21T12:45:14.870Z,3.40
2023-05-21T12:47:42.026Z,2.70
2023-05-21T12:50:12.506Z,3.50
2023-05-21T12:52:41.110Z,3.40
2023-05-21T12:55:10.659Z,3.40
2023-05-21T12:57:41.709Z,3.20
2023-05-21T13:00:10.460Z,3.00
2023-05-21T13:02:42.813Z,3.30
2023-05-21T13:05:19.844Z,2.90
2023-05-21T13:07:48.250Z,3.40
2023-05-21T13:10:17.161Z,3.60
2023-05-21T13:12:45.101Z,3.10
2023-05-21T13:15:12.687Z,3.10
2023-05-21T13:17:39.845Z,2.80
2023-05-21T13:20:15.005Z,3.50
2023-05-21T13:22:43.006Z,3.20
2023-05-21T13:25:12.020Z,3.20
2023-05-21T13:27:39.920Z,2.90
2023-05-21T13:30:07.918Z,2.70
2023-05-21T13:32:35.415Z,2.70
2023-05-21T13:35:02.761Z,2.80
2023-05-21T13:37:30.006Z,2.40
2023-05-21T13:39:57.842Z,2.90
2023-05-21T13:42:25.893Z,2.90
2023-05-21T13:44:53.378Z,3.00
2023-05-21T13:47:20.827Z,3.30
2023-05-21T13:49:48.008Z,2.80
2023-05-21T13:52:15.523Z,3.00
2023-05-21T13:54:43.193Z,3.10
2023-05-21T13:57:10.747Z,2.80
2023-05-21T13:59:38.090Z,3.10
2023-05-21T14:02:05.457Z,3.10
2023-05-21T14:04:32.542Z,2.90
2023-05-21T14:06:59.542Z,3.10
2023-05-21T14:09:27.687Z,3.40
2023-05-21T14:11:56.264Z,2.90
2023-05-21T14:14:23.855Z,3.10
2023-05-21T14:16:51.509Z,2.80
2023-05-21T14:19:18.924Z,2.50
2023-05-21T14:21:46.000Z,3.00
2023-05-21T14:24:13.080Z,2.70
2023-05-21T14:26:43.287Z,2.50
2023-05-21T14:29:10.365Z,3.00
2023-05-21T14:31:38.298Z,3.30
2023-05-21T14:34:07.142Z,2.90
2023-05-21T14:36:34.510Z,3.20
2023-05-21T14:39:01.655Z,2.50
2023-05-21T14:41:29.643Z,2.50
2023-05-21T14:43:56.882Z,3.30
2023-05-21T14:46:23.984Z,2.60
2023-05-21T14:48:51.129Z,3.00
2023-05-21T14:51:18.227Z,2.70
2023-05-21T14:53:45.237Z,2.60
2023-05-21T14:56:12.733Z,2.90
2023-05-21T14:58:39.714Z,2.90
2023-05-21T15:01:11.443Z,2.60
2023-05-21T15:03:42.504Z,2.90
2023-05-21T15:06:10.308Z,2.80
2023-05-21T15:08:38.988Z,2.70
2023-05-21T15:11:12.396Z,2.40
2023-05-21T15:13:40.196Z,2.30
2023-05-21T15:16:07.772Z,2.60
2023-05-21T15:18:34.928Z,2.50
2023-05-21T15:21:02.104Z,2.50
2023-05-21T15:23:29.523Z,2.40
2023-05-21T15:25:56.590Z,2.50
2023-05-21T15:28:23.770Z,2.30
2023-05-21T15:30:50.994Z,2.30
2023-05-21T15:33:18.140Z,2.40
2023-05-21T15:35:46.019Z,2.60
2023-05-21T15:38:13.720Z,2.80
2023-05-21T15:40:44.612Z,2.40
2023-05-21T15:43:11.691Z,2.40
2023-05-21T15:45:40.348Z,2.40
2023-05-21T15:48:07.652Z,2.50
2023-05-21T15:50:35.949Z,2.50
2023-05-21T15:53:04.710Z,2.40
2023-05-21T15:55:33.782Z,2.40
2023-05-21T15:58:02.356Z,2.40
2023-05-21T16:00:29.730Z,2.30
2023-05-21T16:02:56.794Z,2.70
2023-05-21T16:05:23.936Z,2.60
2023-05-21T16:07:50.970Z,2.20
2023-05-21T16:10:18.355Z,2.20
2023-05-21T16:12:45.444Z,2.10
2023-05-21T16:15:12.874Z,2.50
2023-05-21T16:17:39.976Z,2.40
2023-05-21T16:20:07.907Z,2.30
2023-05-21T16:22:35.115Z,2.40
2023-05-21T16:25:03.428Z,2.10
2023-05-21T16:27:30.560Z,1.80
2023-05-21T16:29:58.600Z,2.20
2023-05-21T16:32:25.769Z,1.60
2023-05-21T16:34:53.234Z,1.90
2023-05-21T16:37:20.269Z,2.20
2023-05-21T16:39:47.462Z,1.90
2023-05-21T16:42:14.608Z,1.70
2023-05-21T16:44:41.743Z,2.10
2023-05-21T16:47:08.796Z,1.80
2023-05-21T16:49:35.992Z,2.30
2023-05-21T16:52:03.819Z,2.20
2023-05-21T16:54:31.163Z,2.30
2023-05-21T16:56:58.339Z,2.20
2023-05-21T16:59:25.700Z,2.20
2023-05-21T17:01:53.227Z,2.30
2023-05-21T17:04:20.967Z,2.30
2023-05-21T17:06:48.974Z,3.40
2023-05-21T17:09:18.099Z,3.20
2023-05-21T17:11:46.545Z,3.30
2023-05-21T17:14:23.282Z,3.50
2023-05-21T17:17:01.343Z,3.40
2023-05-21T17:19:28.826Z,3.10
2023-05-21T17:21:57.170Z,2.70
2023-05-21T17:24:24.490Z,3.20
2023-05-21T17:26:53.930Z,2.40
2023-05-21T17:29:21.056Z,2.80
2023-05-21T17:31:48.319Z,3.50
2023-05-21T17:34:16.886Z,3.00
2023-05-21T17:36:44.166Z,2.30
2023-05-21T17:39:11.561Z,2.00
2023-05-21T17:41:38.667Z,2.70
2023-05-21T17:44:05.879Z,3.00
2023-05-21T17:46:33.519Z,2.70
2023-05-21T17:49:00.673Z,2.50
2023-05-21T17:51:27.779Z,2.60
2023-05-21T17:53:56.199Z,3.10
2023-05-21T17:56:23.509Z,2.60
2023-05-21T17:58:51.522Z,2.40
2023-05-21T18:01:18.768Z,2.40
2023-05-21T18:03:45.890Z,2.90
2023-05-21T18:06:13.257Z,2.80
2023-05-21T18:08:40.270Z,3.30
2023-05-21T18:11:07.532Z,2.80
2023-05-21T18:13:34.964Z,2.60
2023-05-21T18:16:02.466Z,2.80
2023-05-21T18:18:29.574Z,3.20
2023-05-21T18:20:56.802Z,2.90
2023-05-21T18:23:24.263Z,2.90
2023-05-21T18:25:51.278Z,2.60
2023-05-21T18:28:18.353Z,2.50
2023-05-21T18:30:45.781Z,3.30
2023-05-21T18:33:13.280Z,2.60
2023-05-21T18:35:42.653Z,2.10
2023-05-21T18:38:10.126Z,2.50
2023-05-21T18:40:38.774Z,3.00
2023-05-21T18:43:06.676Z,2.10
2023-05-21T18:45:34.358Z,1.90
2023-05-21T18:48:03.270Z,2.70
2023-05-21T18:50:31.898Z,2.20
2023-05-21T18:52:59.176Z,2.50
2023-05-21T18:55:26.940Z,2.50
2023-05-21T18:57:55.927Z,2.20
2023-05-21T19:00:23.406Z,2.30
2023-05-21T19:02:50.724Z,2.10
2023-05-21T19:05:18.111Z,2.40
2023-05-21T19:07:45.154Z,2.50
2023-05-21T19:10:13.084Z,2.30
2023-05-21T19:12:42.501Z,2.30
2023-05-21T19:15:10.846Z,2.30
2023-05-21T19:17:39.995Z,2.40
2023-05-21T19:20:08.727Z,2.20
2023-05-21T19:22:39.745Z,2.40
2023-05-21T19:25:07.151Z,2.40
2023-05-21T19:27:34.438Z,2.20
2023-05-21T19:30:01.667Z,2.00
2023-05-21T19:32:31.524Z,2.20
2023-05-21T19:34:58.750Z,2.50
2023-05-21T19:37:26.582Z,2.50
2023-05-21T19:39:53.518Z,2.50
2023-05-21T19:42:21.647Z,2.70
2023-05-21T19:44:48.710Z,2.70
2023-05-21T19:47:16.542Z,3.10
2023-05-21T19:49:43.558Z,3.40
2023-05-21T19:52:12.200Z,3.60
2023-05-21T19:54:39.274Z,3.60
2023-05-21T19:57:07.764Z,2.90
2023-05-21T19:59:35.345Z,2.80
2023-05-21T20:02:02.409Z,3.40
2023-05-21T20:04:29.470Z,3.00
2023-05-21T20:06:56.733Z,3.00
2023-05-21T20:09:24.118Z,3.00
2023-05-21T20:11:51.260Z,2.90
2023-05-21T20:14:18.328Z,3.30
2023-05-21T20:16:47.287Z,3.30
2023-05-21T20:19:15.449Z,3.00
2023-05-21T20:21:43.018Z,3.30
2023-05-21T20:24:11.593Z,3.10
2023-05-21T20:26:40.116Z,2.90
2023-05-21T20:29:08.351Z,3.30
2023-05-21T20:31:36.267Z,3.20
2023-05-21T20:34:07.894Z,3.60
2023-05-21T20:36:40.542Z,3.30
2023-05-21T20:39:09.379Z,3.40
2023-05-21T20:41:37.866Z,3.20
2023-05-21T20:44:08.299Z,3.40
2023-05-21T20:46:39.189Z,2.90
2023-05-21T20:49:06.711Z,3.00
2023-05-21T20:51:33.901Z,3.10
2023-05-21T20:54:01.244Z,3.10
2023-05-21T20:56:41.661Z,3.60
2023-05-21T20:59:11.198Z,3.20
2023-05-21T21:01:39.444Z,3.30
2023-05-21T21:04:06.857Z,3.10
2023-05-21T21:06:35.053Z,3.00
2023-05-21T21:09:01.976Z,3.40
2023-05-21T21:11:29.257Z,3.10
2023-05-21T21:13:56.413Z,3.40
2023-05-21T21:16:23.601Z,3.60
2023-05-21T21:18:50.970Z,3.10
2023-05-21T21:21:18.047Z,3.30
2023-05-21T21:23:45.141Z,3.40
2023-05-21T21:26:12.197Z,3.30
2023-05-21T21:28:39.177Z,3.50
2023-05-21T21:31:06.417Z,3.50
2023-05-21T21:33:33.530Z,3.20
2023-05-21T21:36:00.927Z,3.50
2023-05-21T21:38:27.897Z,3.40
2023-05-21T21:40:55.060Z,3.40
2023-05-21T21:43:22.346Z,3.10
2023-05-21T21:45:49.775Z,3.40
2023-05-21T21:48:17.301Z,3.40
2023-05-21T21:50:44.541Z,3.10
2023-05-21T21:53:14.175Z,3.30
2023-05-21T21:55:41.245Z,2.90
2023-05-21T21:58:08.407Z,3.40
2023-05-21T22:00:35.843Z,2.60
2023-05-21T22:03:03.082Z,2.50
2023-05-21T22:05:31.662Z,2.80
2023-05-21T22:07:58.862Z,3.30
2023-05-21T22:10:26.036Z,3.30
2023-05-21T22:12:53.516Z,3.10
2023-05-21T22:15:27.720Z,3.10
2023-05-21T22:17:55.432Z,3.00
2023-05-21T22:20:22.672Z,2.80
2023-05-21T22:22:50.007Z,3.30
2023-05-21T22:25:17.396Z,3.00
2023-05-21T22:27:44.765Z,3.10
2023-05-21T22:30:12.137Z,2.90
2023-05-21T22:32:39.687Z,2.50
2023-05-21T22:35:07.188Z,2.60
2023-05-21T22:37:34.371Z,3.00
2023-05-21T22:40:01.442Z,3.00
2023-05-21T22:42:28.439Z,2.90
2023-05-21T22:44:55.659Z,3.40
2023-05-21T22:47:24.024Z,3.30
2023-05-21T22:49:53.937Z,2.90
2023-05-21T22:52:24.331Z,3.30
2023-05-21T22:54:54.575Z,3.10
2023-05-21T22:57:21.576Z,3.20
2023-05-21T22:59:48.761Z,3.30
2023-05-21T23:02:16.823Z,3.70
2023-05-21T23:04:44.751Z,3.30
2023-05-21T23:07:12.502Z,2.70
2023-05-21T23:09:39.678Z,2.50
2023-05-21T23:12:07.364Z,2.80
2023-05-21T23:14:34.387Z,2.90
2023-05-21T23:17:05.010Z,3.00
2023-05-21T23:19:33.057Z,3.10
2023-05-21T23:22:00.696Z,3.40
2023-05-21T23:24:29.863Z,3.10
2023-05-21T23:27:02.216Z,3.40
2023-05-21T23:29:30.282Z,3.10
2023-05-21T23:31:57.795Z,3.20
2023-05-21T23:34:25.946Z,3.70
2023-05-21T23:36:53.305Z,3.60
2023-05-21T23:39:21.024Z,2.80
2023-05-21T23:41:48.781Z,2.80
2023-05-21T23:44:16.324Z,2.80
2023-05-21T23:46:43.724Z,2.90
2023-05-21T23:49:10.786Z,3.00
2023-05-21T23:51:39.758Z,3.50
2023-05-21T23:54:08.334Z,3.30
2023-05-21T23:56:35.450Z,3.10
2023-05-21T23:59:02.734Z,3.60
